sensor_id;sensor_type;location;lat;lon;timestamp;pressure;altitude;pressure_sealevel;temperature;humidity
21433;BME280;18592;49.708;10.900;2023-05-25T00:00:37;99169.81;;;15.89;36.38
21433;BME280;18592;49.708;10.900;2023-05-25T00:02:59;99169.78;;;15.84;36.26
21433;BME280;18592;49.708;10.900;2023-05-25T00:05:09;99166.50;;;15.82;36.29
21433;BME280;18592;49.708;10.900;2023-05-25T00:07:12;99173.63;;;15.78;36.53
21433;BME280;18592;49.708;10.900;2023-05-25T00:09:13;99175.84;;;15.76;36.40
21433;BME280;18592;49.708;10.900;2023-05-25T00:11:15;99176.91;;;15.75;36.39
21433;BME280;18592;49.708;10.900;2023-05-25T00:13:20;99173.88;;;15.71;36.50
21433;BME280;18592;49.708;10.900;2023-05-25T00:15:21;99176.06;;;15.69;36.62
21433;BME280;18592;49.708;10.900;2023-05-25T00:17:25;99170.28;;;15.66;36.49
21433;BME280;18592;49.708;10.900;2023-05-25T00:19:34;99171.66;;;15.63;36.72
21433;BME280;18592;49.708;10.900;2023-05-25T00:21:36;99168.63;;;15.60;36.70
21433;BME280;18592;49.708;10.900;2023-05-25T00:23:43;99173.56;;;15.58;36.72
21433;BME280;18592;49.708;10.900;2023-05-25T00:25:45;99177.66;;;15.55;36.85
21433;BME280;18592;49.708;10.900;2023-05-25T00:27:47;99174.38;;;15.53;36.63
21433;BME280;18592;49.708;10.900;2023-05-25T00:29:48;99159.50;;;15.49;36.52
21433;BME280;18592;49.708;10.900;2023-05-25T00:31:51;99160.03;;;15.46;36.81
21433;BME280;18592;49.708;10.900;2023-05-25T00:33:59;99164.09;;;15.44;36.85
21433;BME280;18592;49.708;10.900;2023-05-25T00:36:00;99153.63;;;15.41;37.05
21433;BME280;18592;49.708;10.900;2023-05-25T00:38:03;99155.00;;;15.38;36.93
21433;BME280;18592;49.708;10.900;2023-05-25T00:40:07;99147.31;;;15.35;37.09
21433;BME280;18592;49.708;10.900;2023-05-25T00:42:11;99152.50;;;15.32;37.07
21433;BME280;18592;49.708;10.900;2023-05-25T00:44:13;99151.13;;;15.29;37.06
21433;BME280;18592;49.708;10.900;2023-05-25T00:46:21;99156.31;;;15.25;37.43
21433;BME280;18592;49.708;10.900;2023-05-25T00:48:26;99157.94;;;15.21;37.15
21433;BME280;18592;49.708;10.900;2023-05-25T00:50:41;99163.97;;;15.18;37.49
21433;BME280;18592;49.708;10.900;2023-05-25T00:52:49;99158.19;;;15.15;37.39
21433;BME280;18592;49.708;10.900;2023-05-25T00:54:55;99157.06;;;15.11;37.37
21433;BME280;18592;49.708;10.900;2023-05-25T00:57:01;99152.09;;;15.08;37.46
21433;BME280;18592;49.708;10.900;2023-05-25T00:59:05;99152.66;;;15.05;37.47
21433;BME280;18592;49.708;10.900;2023-05-25T01:01:10;99150.44;;;15.02;37.24
21433;BME280;18592;49.708;10.900;2023-05-25T01:03:15;99150.94;;;14.99;37.44
21433;BME280;18592;49.708;10.900;2023-05-25T01:05:24;99155.06;;;14.96;37.56
21433;BME280;18592;49.708;10.900;2023-05-25T01:07:30;99153.66;;;14.94;37.67
21433;BME280;18592;49.708;10.900;2023-05-25T01:09:34;99162.41;;;14.91;37.60
21433;BME280;18592;49.708;10.900;2023-05-25T01:11:39;99162.94;;;14.88;37.54
21433;BME280;18592;49.708;10.900;2023-05-25T01:13:42;99159.63;;;14.86;37.65
21433;BME280;18592;49.708;10.900;2023-05-25T01:15:46;99153.88;;;14.82;37.69
21433;BME280;18592;49.708;10.900;2023-05-25T01:17:48;99149.72;;;14.80;37.79
21433;BME280;18592;49.708;10.900;2023-05-25T01:20:03;99151.34;;;14.76;37.92
21433;BME280;18592;49.708;10.900;2023-05-25T01:24:27;99153.47;;;14.69;38.02
21433;BME280;18592;49.708;10.900;2023-05-25T01:26:35;99152.94;;;14.67;38.19
21433;BME280;18592;49.708;10.900;2023-05-25T01:28:43;99154.53;;;14.62;38.06
21433;BME280;18592;49.708;10.900;2023-05-25T01:30:48;99158.63;;;14.60;37.96
21433;BME280;18592;49.708;10.900;2023-05-25T01:32:52;99161.06;;;14.56;38.12
21433;BME280;18592;49.708;10.900;2023-05-25T01:34:59;99156.38;;;14.52;38.30
21433;BME280;18592;49.708;10.900;2023-05-25T01:37:01;99157.72;;;14.49;38.21
21433;BME280;18592;49.708;10.900;2023-05-25T01:39:04;99150.84;;;14.47;37.74
21433;BME280;18592;49.708;10.900;2023-05-25T01:41:10;99161.50;;;14.43;38.31
21433;BME280;18592;49.708;10.900;2023-05-25T01:43:12;99149.97;;;14.41;38.20
21433;BME280;18592;49.708;10.900;2023-05-25T01:45:17;99154.91;;;14.39;38.06
21433;BME280;18592;49.708;10.900;2023-05-25T01:50:02;99155.03;;;14.28;38.39
21433;BME280;18592;49.708;10.900;2023-05-25T01:52:18;99147.91;;;14.27;38.47
21433;BME280;18592;49.708;10.900;2023-05-25T01:54:43;99161.28;;;14.23;38.24
21433;BME280;18592;49.708;10.900;2023-05-25T01:56:51;99164.00;;;14.18;38.48
21433;BME280;18592;49.708;10.900;2023-05-25T01:58:57;99163.41;;;14.16;38.43
21433;BME280;18592;49.708;10.900;2023-05-25T02:01:06;99173.00;;;14.14;38.53
21433;BME280;18592;49.708;10.900;2023-05-25T02:03:09;99161.72;;;14.10;38.44
21433;BME280;18592;49.708;10.900;2023-05-25T02:05:11;99166.63;;;14.08;38.47
21433;BME280;18592;49.708;10.900;2023-05-25T02:07:13;99170.72;;;14.06;38.51
21433;BME280;18592;49.708;10.900;2023-05-25T02:09:18;99161.09;;;14.03;38.33
21433;BME280;18592;49.708;10.900;2023-05-25T02:11:19;99167.09;;;14.00;38.49
21433;BME280;18592;49.708;10.900;2023-05-25T02:13:22;99165.69;;;13.97;38.48
21433;BME280;18592;49.708;10.900;2023-05-25T02:15:24;99164.28;;;13.95;38.51
21433;BME280;18592;49.708;10.900;2023-05-25T02:17:26;99170.28;;;13.92;38.49
21433;BME280;18592;49.708;10.900;2023-05-25T02:19:28;99161.50;;;13.90;38.67
21433;BME280;18592;49.708;10.900;2023-05-25T02:21:30;99160.94;;;13.88;38.65
21433;BME280;18592;49.708;10.900;2023-05-25T02:23:33;99163.34;;;13.84;38.82
21433;BME280;18592;49.708;10.900;2023-05-25T02:25:39;99157.31;;;13.82;38.70
21433;BME280;18592;49.708;10.900;2023-05-25T02:27:45;99158.66;;;13.80;38.72
21433;BME280;18592;49.708;10.900;2023-05-25T02:29:48;99150.94;;;13.77;38.74
21433;BME280;18592;49.708;10.900;2023-05-25T02:31:51;99150.63;;;13.73;38.64
21433;BME280;18592;49.708;10.900;2023-05-25T02:33:52;99150.88;;;13.72;38.67
21433;BME280;18592;49.708;10.900;2023-05-25T02:35:54;99155.78;;;13.70;38.87
21433;BME280;18592;49.708;10.900;2023-05-25T02:37:56;99153.56;;;13.67;38.75
21433;BME280;18592;49.708;10.900;2023-05-25T02:39:58;99152.16;;;13.64;38.81
21433;BME280;18592;49.708;10.900;2023-05-25T02:41:59;99152.44;;;13.63;38.87
21433;BME280;18592;49.708;10.900;2023-05-25T02:44:02;99157.34;;;13.61;39.02
21433;BME280;18592;49.708;10.900;2023-05-25T02:46:05;99156.75;;;13.59;38.96
21433;BME280;18592;49.708;10.900;2023-05-25T02:48:06;99160.00;;;13.56;38.98
21433;BME280;18592;49.708;10.900;2023-05-25T02:50:09;99171.22;;;13.54;39.05
21433;BME280;18592;49.708;10.900;2023-05-25T02:52:16;99164.34;;;13.52;39.10
21433;BME280;18592;49.708;10.900;2023-05-25T02:54:18;99160.47;;;13.48;39.14
21433;BME280;18592;49.708;10.900;2023-05-25T02:56:21;99167.00;;;13.47;39.23
21433;BME280;18592;49.708;10.900;2023-05-25T02:58:25;99165.59;;;13.44;39.11
21433;BME280;18592;49.708;10.900;2023-05-25T03:00:49;99162.56;;;13.41;39.31
21433;BME280;18592;49.708;10.900;2023-05-25T03:02:51;99174.84;;;13.38;39.36
21433;BME280;18592;49.708;10.900;2023-05-25T03:04:53;99175.09;;;13.36;39.33
21433;BME280;18592;49.708;10.900;2023-05-25T03:06:55;99172.84;;;13.33;39.29
21433;BME280;18592;49.708;10.900;2023-05-25T03:08:56;99177.75;;;13.31;39.38
21433;BME280;18592;49.708;10.900;2023-05-25T03:10:58;99176.13;;;13.30;39.38
21433;BME280;18592;49.708;10.900;2023-05-25T03:13:00;99178.53;;;13.27;39.57
21433;BME280;18592;49.708;10.900;2023-05-25T03:15:03;99178.78;;;13.25;39.42
21433;BME280;18592;49.708;10.900;2023-05-25T03:17:05;99182.59;;;13.24;39.54
21433;BME280;18592;49.708;10.900;2023-05-25T03:19:06;99185.84;;;13.21;39.52
21433;BME280;18592;49.708;10.900;2023-05-25T03:21:10;99186.34;;;13.18;39.45
21433;BME280;18592;49.708;10.900;2023-05-25T03:23:12;99184.69;;;13.17;39.51
21433;BME280;18592;49.708;10.900;2023-05-25T03:25:17;99189.59;;;13.15;39.55
21433;BME280;18592;49.708;10.900;2023-05-25T03:27:18;99188.19;;;13.13;39.63
21433;BME280;18592;49.708;10.900;2023-05-25T03:29:21;99193.91;;;13.11;39.55
21433;BME280;18592;49.708;10.900;2023-05-25T03:31:23;99204.28;;;13.09;39.54
21433;BME280;18592;49.708;10.900;2023-05-25T03:33:25;99205.63;;;13.07;39.76
21433;BME280;18592;49.708;10.900;2023-05-25T03:35:27;99208.59;;;13.05;39.67
21433;BME280;18592;49.708;10.900;2023-05-25T03:37:29;99202.50;;;13.03;39.65
21433;BME280;18592;49.708;10.900;2023-05-25T03:39:32;99209.09;;;13.02;39.86
21433;BME280;18592;49.708;10.900;2023-05-25T03:41:33;99201.38;;;12.99;40.10
21433;BME280;18592;49.708;10.900;2023-05-25T03:43:35;99206.84;;;12.99;39.88
21433;BME280;18592;49.708;10.900;2023-05-25T03:45:39;99203.75;;;12.96;39.83
21433;BME280;18592;49.708;10.900;2023-05-25T03:47:40;99211.16;;;12.95;39.85
21433;BME280;18592;49.708;10.900;2023-05-25T03:49:42;99218.53;;;12.95;40.15
21433;BME280;18592;49.708;10.900;2023-05-25T03:51:44;99217.97;;;12.93;40.03
21433;BME280;18592;49.708;10.900;2023-05-25T03:53:46;99212.72;;;12.91;40.03
21433;BME280;18592;49.708;10.900;2023-05-25T03:55:48;99216.56;;;12.90;39.97
21433;BME280;18592;49.708;10.900;2023-05-25T03:57:52;99214.31;;;12.87;40.01
21433;BME280;18592;49.708;10.900;2023-05-25T03:59:55;99220.84;;;12.86;40.12
21433;BME280;18592;49.708;10.900;2023-05-25T04:01:58;99221.69;;;12.87;40.08
21433;BME280;18592;49.708;10.900;2023-05-25T04:04:01;99230.13;;;12.85;40.24
21433;BME280;18592;49.708;10.900;2023-05-25T04:06:03;99232.06;;;12.85;40.17
21433;BME280;18592;49.708;10.900;2023-05-25T04:08:08;99235.88;;;12.84;40.28
21433;BME280;18592;49.708;10.900;2023-05-25T04:10:11;99235.03;;;12.83;40.41
21433;BME280;18592;49.708;10.900;2023-05-25T04:12:13;99240.50;;;12.83;40.40
21433;BME280;18592;49.708;10.900;2023-05-25T04:14:14;99226.00;;;12.83;40.49
21433;BME280;18592;49.708;10.900;2023-05-25T04:16:22;99228.72;;;12.83;40.53
21433;BME280;18592;49.708;10.900;2023-05-25T04:18:23;99238.03;;;12.82;40.38
21433;BME280;18592;49.708;10.900;2023-05-25T04:20:25;99247.06;;;12.82;40.50
21433;BME280;18592;49.708;10.900;2023-05-25T04:22:27;99242.66;;;12.81;40.76
21433;BME280;18592;49.708;10.900;2023-05-25T04:24:31;99248.13;;;12.81;40.41
21433;BME280;18592;49.708;10.900;2023-05-25T04:26:35;99249.19;;;12.80;40.78
21433;BME280;18592;49.708;10.900;2023-05-25T04:28:40;99255.50;;;12.81;40.61
21433;BME280;18592;49.708;10.900;2023-05-25T04:31:02;99249.19;;;12.80;40.76
21433;BME280;18592;49.708;10.900;2023-05-25T04:33:22;99251.94;;;12.80;40.94
21433;BME280;18592;49.708;10.900;2023-05-25T04:35:45;99248.13;;;12.81;40.90
21433;BME280;18592;49.708;10.900;2023-05-25T04:37:47;99256.91;;;12.83;40.86
21433;BME280;18592;49.708;10.900;2023-05-25T04:39:49;99262.16;;;12.85;40.89
21433;BME280;18592;49.708;10.900;2023-05-25T04:41:51;99259.16;;;12.86;40.92
21433;BME280;18592;49.708;10.900;2023-05-25T04:43:53;99255.38;;;12.87;40.86
21433;BME280;18592;49.708;10.900;2023-05-25T04:46:12;99259.75;;;12.88;40.95
21433;BME280;18592;49.708;10.900;2023-05-25T04:48:18;99255.94;;;12.89;40.94
21433;BME280;18592;49.708;10.900;2023-05-25T04:50:20;99260.34;;;12.90;40.97
21433;BME280;18592;49.708;10.900;2023-05-25T04:52:22;99258.19;;;12.92;40.94
21433;BME280;18592;49.708;10.900;2023-05-25T04:54:23;99261.50;;;12.94;40.83
21433;BME280;18592;49.708;10.900;2023-05-25T04:56:25;99259.31;;;12.96;40.80
21433;BME280;18592;49.708;10.900;2023-05-25T04:58:30;99262.63;;;12.98;40.84
21433;BME280;18592;49.708;10.900;2023-05-25T05:00:36;99270.34;;;13.01;41.38
21433;BME280;18592;49.708;10.900;2023-05-25T05:02:41;99272.03;;;13.02;40.85
21433;BME280;18592;49.708;10.900;2023-05-25T05:04:44;99270.81;;;13.10;41.16
21433;BME280;18592;49.708;10.900;2023-05-25T05:06:48;99278.53;;;13.13;40.87
21433;BME280;18592;49.708;10.900;2023-05-25T05:08:53;99273.63;;;13.15;41.10
21433;BME280;18592;49.708;10.900;2023-05-25T05:10:55;99274.19;;;13.17;41.71
21433;BME280;18592;49.708;10.900;2023-05-25T05:12:58;99271.81;;;13.20;41.62
21433;BME280;18592;49.708;10.900;2023-05-25T05:15:00;99275.69;;;13.24;41.57
21433;BME280;18592;49.708;10.900;2023-05-25T05:17:02;99276.84;;;13.28;41.49
21433;BME280;18592;49.708;10.900;2023-05-25T05:19:04;99276.91;;;13.33;41.54
21433;BME280;18592;49.708;10.900;2023-05-25T05:21:06;99280.56;;;13.39;41.45
21433;BME280;18592;49.708;10.900;2023-05-25T05:23:12;99280.41;;;13.46;41.68
21433;BME280;18592;49.708;10.900;2023-05-25T05:25:17;99271.16;;;13.52;41.90
21433;BME280;18592;49.708;10.900;2023-05-25T05:27:19;99270.16;;;13.58;42.69
21433;BME280;18592;49.708;10.900;2023-05-25T05:29:28;99282.81;;;13.64;42.97
21433;BME280;18592;49.708;10.900;2023-05-25T05:31:30;99269.53;;;13.72;43.33
21433;BME280;18592;49.708;10.900;2023-05-25T05:33:32;99277.63;;;13.84;43.37
21433;BME280;18592;49.708;10.900;2023-05-25T05:35:35;99278.34;;;13.96;43.31
21433;BME280;18592;49.708;10.900;2023-05-25T05:37:46;99282.59;;;14.09;43.48
21433;BME280;18592;49.708;10.900;2023-05-25T05:39:48;99278.88;;;14.20;43.48
21433;BME280;18592;49.708;10.900;2023-05-25T05:41:53;99280.44;;;14.32;43.30
21433;BME280;18592;49.708;10.900;2023-05-25T05:43:55;99282.22;;;14.43;43.39
21433;BME280;18592;49.708;10.900;2023-05-25T05:45:56;99274.66;;;14.55;43.47
21433;BME280;18592;49.708;10.900;2023-05-25T05:47:58;99278.88;;;14.68;43.48
21433;BME280;18592;49.708;10.900;2023-05-25T05:50:00;99272.13;;;14.81;43.34
21433;BME280;18592;49.708;10.900;2023-05-25T05:52:04;99281.63;;;14.95;43.42
21433;BME280;18592;49.708;10.900;2023-05-25T05:54:06;99285.56;;;15.09;43.45
21433;BME280;18592;49.708;10.900;2023-05-25T05:56:16;99282.94;;;15.24;43.79
21433;BME280;18592;49.708;10.900;2023-05-25T05:58:19;99277.28;;;15.41;43.21
21433;BME280;18592;49.708;10.900;2023-05-25T06:00:23;99279.91;;;15.57;43.44
21433;BME280;18592;49.708;10.900;2023-05-25T06:02:25;99287.16;;;15.73;43.42
21433;BME280;18592;49.708;10.900;2023-05-25T06:04:27;99283.91;;;15.92;43.56
21433;BME280;18592;49.708;10.900;2023-05-25T06:06:31;99287.31;;;16.09;43.36
21433;BME280;18592;49.708;10.900;2023-05-25T06:08:35;99284.06;;;16.27;43.30
21433;BME280;18592;49.708;10.900;2023-05-25T06:10:37;99281.94;;;16.44;43.29
21433;BME280;18592;49.708;10.900;2023-05-25T06:12:46;99285.84;;;16.63;43.35
21433;BME280;18592;49.708;10.900;2023-05-25T06:14:49;99282.59;;;16.81;43.10
21433;BME280;18592;49.708;10.900;2023-05-25T06:16:52;99285.63;;;17.00;43.15
21433;BME280;18592;49.708;10.900;2023-05-25T06:18:55;99273.25;;;17.18;43.03
21433;BME280;18592;49.708;10.900;2023-05-25T06:20:56;99275.41;;;17.36;42.90
21433;BME280;18592;49.708;10.900;2023-05-25T06:22:58;99272.09;;;17.54;43.00
21433;BME280;18592;49.708;10.900;2023-05-25T06:25:00;99276.19;;;17.71;42.77
21433;BME280;18592;49.708;10.900;2023-05-25T06:27:02;99273.66;;;17.90;42.81
21433;BME280;18592;49.708;10.900;2023-05-25T06:29:07;99267.00;;;18.06;42.63
21433;BME280;18592;49.708;10.900;2023-05-25T06:31:09;99273.00;;;18.23;42.40
21433;BME280;18592;49.708;10.900;2023-05-25T06:33:11;99270.16;;;18.38;42.46
21433;BME280;18592;49.708;10.900;2023-05-25T06:35:13;99274.50;;;18.55;42.42
21433;BME280;18592;49.708;10.900;2023-05-25T06:37:26;99274.38;;;18.70;42.20
21433;BME280;18592;49.708;10.900;2023-05-25T06:39:31;99273.19;;;18.86;42.10
21433;BME280;18592;49.708;10.900;2023-05-25T06:41:37;99263.69;;;19.02;42.26
21433;BME280;18592;49.708;10.900;2023-05-25T06:43:38;99259.44;;;19.15;41.93
21433;BME280;18592;49.708;10.900;2023-05-25T06:45:49;99267.28;;;19.31;42.02
21433;BME280;18592;49.708;10.900;2023-05-25T06:47:53;99268.31;;;19.45;41.72
21433;BME280;18592;49.708;10.900;2023-05-25T06:49:54;99273.94;;;19.59;41.95
21433;BME280;18592;49.708;10.900;2023-05-25T06:51:57;99273.25;;;19.72;41.31
21433;BME280;18592;49.708;10.900;2023-05-25T06:53:58;99268.97;;;19.85;41.49
21433;BME280;18592;49.708;10.900;2023-05-25T06:56:00;99263.84;;;19.97;41.15
21433;BME280;18592;49.708;10.900;2023-05-25T06:58:02;99259.00;;;20.07;41.27
21433;BME280;18592;49.708;10.900;2023-05-25T07:00:04;99262.47;;;20.18;41.01
21433;BME280;18592;49.708;10.900;2023-05-25T07:02:10;99263.22;;;20.29;40.59
21433;BME280;18592;49.708;10.900;2023-05-25T07:04:11;99262.25;;;20.38;40.71
21433;BME280;18592;49.708;10.900;2023-05-25T07:06:13;99274.28;;;20.47;40.31
21433;BME280;18592;49.708;10.900;2023-05-25T07:08:20;99273.63;;;20.55;40.32
21433;BME280;18592;49.708;10.900;2023-05-25T07:10:21;99274.91;;;20.63;40.38
21433;BME280;18592;49.708;10.900;2023-05-25T07:12:23;99267.88;;;20.70;40.29
21433;BME280;18592;49.708;10.900;2023-05-25T07:14:27;99269.16;;;20.78;40.04
21433;BME280;18592;49.708;10.900;2023-05-25T07:16:29;99272.91;;;20.87;39.67
21433;BME280;18592;49.708;10.900;2023-05-25T07:18:32;99273.34;;;20.94;39.56
21433;BME280;18592;49.708;10.900;2023-05-25T07:20:33;99267.13;;;21.02;39.72
21433;BME280;18592;49.708;10.900;2023-05-25T07:22:39;99265.31;;;21.11;39.58
21433;BME280;18592;49.708;10.900;2023-05-25T07:24:40;99262.16;;;21.18;39.36
21433;BME280;18592;49.708;10.900;2023-05-25T07:26:42;99267.53;;;21.28;39.72
21433;BME280;18592;49.708;10.900;2023-05-25T07:28:45;99270.44;;;21.36;39.75
21433;BME280;18592;49.708;10.900;2023-05-25T07:30:52;99270.25;;;21.46;39.62
21433;BME280;18592;49.708;10.900;2023-05-25T07:32:53;99270.91;;;21.57;39.65
21433;BME280;18592;49.708;10.900;2023-05-25T07:34:55;99265.16;;;21.67;39.68
21433;BME280;18592;49.708;10.900;2023-05-25T07:36:57;99280.47;;;21.78;39.33
21433;BME280;18592;49.708;10.900;2023-05-25T07:38:58;99277.03;;;21.86;39.33
21433;BME280;18592;49.708;10.900;2023-05-25T07:41:01;99274.88;;;21.97;39.54
21433;BME280;18592;49.708;10.900;2023-05-25T07:43:04;99280.22;;;22.07;39.57
21433;BME280;18592;49.708;10.900;2023-05-25T07:45:09;99280.03;;;22.17;39.46
21433;BME280;18592;49.708;10.900;2023-05-25T07:47:11;99266.25;;;22.26;39.16
21433;BME280;18592;49.708;10.900;2023-05-25T07:49:16;99267.66;;;22.37;39.21
21433;BME280;18592;49.708;10.900;2023-05-25T07:51:18;99274.13;;;22.46;39.25
21433;BME280;18592;49.708;10.900;2023-05-25T07:53:22;99264.75;;;22.55;39.15
21433;BME280;18592;49.708;10.900;2023-05-25T07:55:25;99275.34;;;22.67;39.06
21433;BME280;18592;49.708;10.900;2023-05-25T07:57:27;99272.34;;;22.77;39.06
21433;BME280;18592;49.708;10.900;2023-05-25T07:59:30;99276.84;;;22.87;39.11
21433;BME280;18592;49.708;10.900;2023-05-25T08:01:31;99261.88;;;22.96;38.84
21433;BME280;18592;49.708;10.900;2023-05-25T08:03:33;99265.25;;;23.07;38.98
21433;BME280;18592;49.708;10.900;2023-05-25T08:05:52;99262.38;;;23.20;38.95
21433;BME280;18592;49.708;10.900;2023-05-25T08:07:54;99260.16;;;23.31;38.84
21433;BME280;18592;49.708;10.900;2023-05-25T08:09:58;99264.69;;;23.41;38.75
21433;BME280;18592;49.708;10.900;2023-05-25T08:12:00;99260.50;;;23.52;38.82
21433;BME280;18592;49.708;10.900;2023-05-25T08:14:22;99257.94;;;23.64;38.98
21433;BME280;18592;49.708;10.900;2023-05-25T08:16:24;99256.84;;;23.73;38.87
21433;BME280;18592;49.708;10.900;2023-05-25T08:18:26;99256.56;;;23.83;38.65
21433;BME280;18592;49.708;10.900;2023-05-25T08:20:27;99259.06;;;23.93;38.73
21433;BME280;18592;49.708;10.900;2023-05-25T08:22:29;99257.97;;;24.03;38.68
21433;BME280;18592;49.708;10.900;2023-05-25T08:24:31;99253.28;;;24.12;38.20
21433;BME280;18592;49.708;10.900;2023-05-25T08:26:33;99262.16;;;24.23;38.33
21433;BME280;18592;49.708;10.900;2023-05-25T08:28:54;99263.47;;;24.34;38.23
21433;BME280;18592;49.708;10.900;2023-05-25T08:30:56;99256.81;;;24.43;38.08
21433;BME280;18592;49.708;10.900;2023-05-25T08:32:59;99254.53;;;24.54;38.38
21433;BME280;18592;49.708;10.900;2023-05-25T08:35:01;99247.81;;;24.63;38.03
21433;BME280;18592;49.708;10.900;2023-05-25T08:37:05;99250.28;;;24.74;37.85
21433;BME280;18592;49.708;10.900;2023-05-25T08:39:07;99254.75;;;24.83;38.21
21433;BME280;18592;49.708;10.900;2023-05-25T08:41:15;99252.44;;;24.94;38.11
21433;BME280;18592;49.708;10.900;2023-05-25T08:43:17;99248.16;;;25.05;38.01
21433;BME280;18592;49.708;10.900;2023-05-25T08:45:19;99260.16;;;25.14;37.66
21433;BME280;18592;49.708;10.900;2023-05-25T08:47:40;99256.38;;;25.27;37.65
21433;BME280;18592;49.708;10.900;2023-05-25T08:49:43;99257.66;;;25.38;37.95
21433;BME280;18592;49.708;10.900;2023-05-25T08:51:50;99264.56;;;25.49;37.98
21433;BME280;18592;49.708;10.900;2023-05-25T08:53:52;99259.13;;;25.61;38.03
21433;BME280;18592;49.708;10.900;2023-05-25T08:55:56;99250.38;;;25.71;37.51
21433;BME280;18592;49.708;10.900;2023-05-25T08:58:01;99251.97;;;25.81;37.73
21433;BME280;18592;49.708;10.900;2023-05-25T09:00:08;99248.16;;;25.94;38.08
21433;BME280;18592;49.708;10.900;2023-05-25T09:02:24;99247.47;;;26.06;37.81
21433;BME280;18592;49.708;10.900;2023-05-25T09:04:27;99255.31;;;26.21;38.08
21433;BME280;18592;49.708;10.900;2023-05-25T09:06:33;99253.44;;;26.33;37.91
21433;BME280;18592;49.708;10.900;2023-05-25T09:08:40;99256.78;;;26.47;37.97
21433;BME280;18592;49.708;10.900;2023-05-25T09:10:42;99239.25;;;26.59;37.75
21433;BME280;18592;49.708;10.900;2023-05-25T09:12:45;99236.06;;;26.69;37.52
21433;BME280;18592;49.708;10.900;2023-05-25T09:14:48;99250.97;;;26.82;37.82
21433;BME280;18592;49.708;10.900;2023-05-25T09:16:49;99245.78;;;26.92;37.37
21433;BME280;18592;49.708;10.900;2023-05-25T09:18:51;99243.75;;;27.01;37.07
21433;BME280;18592;49.708;10.900;2023-05-25T09:20:53;99246.44;;;27.10;37.32
21433;BME280;18592;49.708;10.900;2023-05-25T09:22:59;99240.94;;;27.22;37.40
21433;BME280;18592;49.708;10.900;2023-05-25T09:25:05;99241.78;;;27.35;36.92
21433;BME280;18592;49.708;10.900;2023-05-25T09:27:15;99252.22;;;27.46;37.33
21433;BME280;18592;49.708;10.900;2023-05-25T09:29:18;99238.59;;;27.57;36.75
21433;BME280;18592;49.708;10.900;2023-05-25T09:31:22;99240.16;;;27.66;37.00
21433;BME280;18592;49.708;10.900;2023-05-25T09:33:24;99242.13;;;27.78;36.84
21433;BME280;18592;49.708;10.900;2023-05-25T09:35:29;99244.50;;;27.88;36.55
21433;BME280;18592;49.708;10.900;2023-05-25T09:37:31;99242.41;;;27.97;36.68
21433;BME280;18592;49.708;10.900;2023-05-25T09:39:34;99247.59;;;28.07;36.63
21433;BME280;18592;49.708;10.900;2023-05-25T09:41:36;99245.47;;;28.16;36.34
21433;BME280;18592;49.708;10.900;2023-05-25T09:43:41;99242.56;;;28.25;36.22
21433;BME280;18592;49.708;10.900;2023-05-25T09:45:54;99238.00;;;28.32;36.01
21433;BME280;18592;49.708;10.900;2023-05-25T09:47:57;99238.22;;;28.40;36.03
21433;BME280;18592;49.708;10.900;2023-05-25T09:50:02;99244.56;;;28.49;35.84
21433;BME280;18592;49.708;10.900;2023-05-25T09:52:05;99253.66;;;28.58;35.80
21433;BME280;18592;49.708;10.900;2023-05-25T09:54:10;99244.31;;;28.66;35.65
21433;BME280;18592;49.708;10.900;2023-05-25T09:56:13;99245.00;;;28.75;35.79
21433;BME280;18592;49.708;10.900;2023-05-25T09:58:14;99244.88;;;28.83;35.79
21433;BME280;18592;49.708;10.900;2023-05-25T10:00:16;99230.66;;;28.92;35.49
21433;BME280;18592;49.708;10.900;2023-05-25T10:02:18;99236.16;;;29.01;35.57
21433;BME280;18592;49.708;10.900;2023-05-25T10:04:20;99229.91;;;29.07;34.88
21433;BME280;18592;49.708;10.900;2023-05-25T10:06:25;99230.13;;;29.14;35.22
21433;BME280;18592;49.708;10.900;2023-05-25T10:08:28;99234.44;;;29.24;35.16
21433;BME280;18592;49.708;10.900;2023-05-25T10:10:31;99232.28;;;29.33;35.19
21433;BME280;18592;49.708;10.900;2023-05-25T10:12:33;99233.41;;;29.44;35.22
21433;BME280;18592;49.708;10.900;2023-05-25T10:14:36;99230.91;;;29.54;34.84
21433;BME280;18592;49.708;10.900;2023-05-25T10:16:39;99232.38;;;29.64;35.01
21433;BME280;18592;49.708;10.900;2023-05-25T10:18:47;99235.47;;;29.75;35.03
21433;BME280;18592;49.708;10.900;2023-05-25T10:20:52;99242.94;;;29.83;35.08
21433;BME280;18592;49.708;10.900;2023-05-25T10:23:08;99235.84;;;29.89;34.28
21433;BME280;18592;49.708;10.900;2023-05-25T10:25:24;99231.59;;;29.95;34.32
21433;BME280;18592;49.708;10.900;2023-05-25T10:27:33;99226.53;;;30.00;34.14
21433;BME280;18592;49.708;10.900;2023-05-25T10:29:39;99235.97;;;30.08;34.40
21433;BME280;18592;49.708;10.900;2023-05-25T10:31:41;99237.31;;;30.14;33.77
21433;BME280;18592;49.708;10.900;2023-05-25T10:33:43;99232.66;;;30.22;33.77
21433;BME280;18592;49.708;10.900;2023-05-25T10:35:53;99240.00;;;30.26;33.75
21433;BME280;18592;49.708;10.900;2023-05-25T10:38:11;99237.03;;;30.35;33.74
21433;BME280;18592;49.708;10.900;2023-05-25T10:40:16;99235.94;;;30.39;33.68
21433;BME280;18592;49.708;10.900;2023-05-25T10:42:19;99237.31;;;30.45;33.49
21433;BME280;18592;49.708;10.900;2023-05-25T10:44:21;99243.47;;;30.51;32.95
21433;BME280;18592;49.708;10.900;2023-05-25T10:46:24;99238.72;;;30.55;32.81
21433;BME280;18592;49.708;10.900;2023-05-25T10:48:36;99234.81;;;30.59;32.71
21433;BME280;18592;49.708;10.900;2023-05-25T10:50:39;99232.91;;;30.63;32.60
21433;BME280;18592;49.708;10.900;2023-05-25T10:52:47;99236.69;;;30.71;33.11
21433;BME280;18592;49.708;10.900;2023-05-25T10:55:01;99233.22;;;30.77;33.19